sensor_id;sensor_type;location;lat;lon;timestamp;pressure;altitude;pressure_sealevel;temperature;humidity
70968;BME280;58629;48.808;8.820;2023-08-20T00:01:26;97508.66;;;19.26;100.00
70968;BME280;58629;48.808;8.820;2023-08-20T00:03:53;97509.84;;;19.25;100.00
70968;BME280;58629;48.808;8.820;2023-08-20T00:06:19;97512.97;;;19.24;100.00
70968;BME280;58629;48.808;8.820;2023-08-20T00:08:45;97508.53;;;19.21;100.00
70968;BME280;58629;48.808;8.820;2023-08-20T00:11:12;97519.72;;;19.19;100.00
70968;BME280;58629;48.808;8.820;2023-08-20T00:13:37;97510.16;;;19.18;100.00
70968;BME280;58629;48.808;8.820;2023-08-20T00:16:03;97516.00;;;19.17;100.00
70968;BME280;58629;48.808;8.820;2023-08-20T00:18:29;97521.38;;;19.17;100.00
70968;BME280;58629;48.808;8.820;2023-08-20T00:20:55;97515.41;;;19.13;100.00
70968;BME280;58629;48.808;8.820;2023-08-20T00:23:21;97515.28;;;19.07;100.00
70968;BME280;58629;48.808;8.820;2023-08-20T00:25:46;97517.38;;;19.03;100.00
70968;BME280;58629;48.808;8.820;2023-08-20T00:28:12;97522.47;;;19.01;100.00
70968;BME280;58629;48.808;8.820;2023-08-20T00:30:37;97514.13;;;18.99;100.00
70968;BME280;58629;48.808;8.820;2023-08-20T00:33:03;97521.88;;;18.97;100.00
70968;BME280;58629;48.808;8.820;2023-08-20T00:35:28;97522.63;;;18.97;100.00
70968;BME280;58629;48.808;8.820;2023-08-20T00:37:53;97521.59;;;18.95;100.00
70968;BME280;58629;48.808;8.820;2023-08-20T00:40:19;97522.47;;;18.92;100.00
70968;BME280;58629;48.808;8.820;2023-08-20T00:42:44;97521.00;;;18.91;100.00
70968;BME280;58629;48.808;8.820;2023-08-20T00:45:09;97521.47;;;18.89;100.00
70968;BME280;58629;48.808;8.820;2023-08-20T00:47:35;97523.84;;;18.87;100.00
70968;BME280;58629;48.808;8.820;2023-08-20T00:50:02;97525.78;;;18.87;100.00
70968;BME280;58629;48.808;8.820;2023-08-20T00:52:30;97520.72;;;18.89;100.00
70968;BME280;58629;48.808;8.820;2023-08-20T00:54:56;97522.94;;;18.90;100.00
70968;BME280;58629;48.808;8.820;2023-08-20T00:57:23;97526.53;;;18.87;100.00
70968;BME280;58629;48.808;8.820;2023-08-20T00:59:49;97520.88;;;18.85;100.00
70968;BME280;58629;48.808;8.820;2023-08-20T01:02:16;97526.06;;;18.89;100.00
70968;BME280;58629;48.808;8.820;2023-08-20T01:04:42;97528.75;;;18.89;100.00
70968;BME280;58629;48.808;8.820;2023-08-20T01:10:17;97529.34;;;18.84;100.00
70968;BME280;58629;48.808;8.820;2023-08-20T01:12:45;97524.72;;;18.84;100.00
70968;BME280;58629;48.808;8.820;2023-08-20T01:15:11;97527.13;;;18.82;100.00
70968;BME280;58629;48.808;8.820;2023-08-20T01:17:39;97526.25;;;18.76;100.00
70968;BME280;58629;48.808;8.820;2023-08-20T01:20:06;97528.63;;;18.74;100.00
70968;BME280;58629;48.808;8.820;2023-08-20T01:30:42;97516.41;;;18.73;100.00
70968;BME280;58629;48.808;8.820;2023-08-20T01:33:09;97516.13;;;18.71;100.00
70968;BME280;58629;48.808;8.820;2023-08-20T01:35:36;97519.69;;;18.68;100.00
70968;BME280;58629;48.808;8.820;2023-08-20T01:38:01;97521.06;;;18.64;100.00
70968;BME280;58629;48.808;8.820;2023-08-20T01:40:27;97521.50;;;18.62;100.00
70968;BME280;58629;48.808;8.820;2023-08-20T01:42:52;97521.66;;;18.59;100.00
70968;BME280;58629;48.808;8.820;2023-08-20T01:45:17;97527.75;;;18.59;100.00
70968;BME280;58629;48.808;8.820;2023-08-20T01:47:43;97519.72;;;18.59;100.00
70968;BME280;58629;48.808;8.820;2023-08-20T01:50:09;97526.72;;;18.57;100.00
70968;BME280;58629;48.808;8.820;2023-08-20T01:52:34;97524.66;;;18.52;100.00
70968;BME280;58629;48.808;8.820;2023-08-20T01:55:00;97525.81;;;18.42;100.00
70968;BME280;58629;48.808;8.820;2023-08-20T01:57:25;97519.69;;;18.41;100.00
70968;BME280;58629;48.808;8.820;2023-08-20T01:59:50;97531.50;;;18.44;100.00
70968;BME280;58629;48.808;8.820;2023-08-20T02:02:16;97518.50;;;18.42;100.00
70968;BME280;58629;48.808;8.820;2023-08-20T02:04:41;97530.00;;;18.43;100.00
70968;BME280;58629;48.808;8.820;2023-08-20T02:07:06;97535.50;;;18.39;100.00
70968;BME280;58629;48.808;8.820;2023-08-20T02:09:32;97526.41;;;18.37;100.00
70968;BME280;58629;48.808;8.820;2023-08-20T02:11:57;97531.00;;;18.36;100.00
70968;BME280;58629;48.808;8.820;2023-08-20T02:14:23;97536.53;;;18.33;100.00
70968;BME280;58629;48.808;8.820;2023-08-20T02:16:48;97529.69;;;18.32;100.00
70968;BME280;58629;48.808;8.820;2023-08-20T02:19:13;97535.81;;;18.32;100.00
70968;BME280;58629;48.808;8.820;2023-08-20T02:21:39;97534.00;;;18.29;100.00
70968;BME280;58629;48.808;8.820;2023-08-20T02:24:05;97538.78;;;18.25;100.00
70968;BME280;58629;48.808;8.820;2023-08-20T02:26:30;97538.78;;;18.25;100.00
70968;BME280;58629;48.808;8.820;2023-08-20T02:28:56;97534.91;;;18.26;100.00
70968;BME280;58629;48.808;8.820;2023-08-20T02:31:21;97540.69;;;18.25;100.00
70968;BME280;58629;48.808;8.820;2023-08-20T02:33:46;97533.09;;;18.23;100.00
70968;BME280;58629;48.808;8.820;2023-08-20T02:36:12;97528.50;;;18.24;100.00
70968;BME280;58629;48.808;8.820;2023-08-20T02:38:37;97533.84;;;18.24;100.00
70968;BME280;58629;48.808;8.820;2023-08-20T02:41:02;97527.44;;;18.21;100.00
70968;BME280;58629;48.808;8.820;2023-08-20T02:43:28;97529.84;;;18.19;100.00
70968;BME280;58629;48.808;8.820;2023-08-20T02:45:54;97534.13;;;18.16;100.00
70968;BME280;58629;48.808;8.820;2023-08-20T02:48:19;97534.28;;;18.13;100.00
70968;BME280;58629;48.808;8.820;2023-08-20T02:50:44;97521.03;;;18.09;100.00
70968;BME280;58629;48.808;8.820;2023-08-20T02:53:10;97524.19;;;18.08;100.00
70968;BME280;58629;48.808;8.820;2023-08-20T02:55:35;97522.22;;;18.08;100.00
70968;BME280;58629;48.808;8.820;2023-08-20T02:58:01;97520.16;;;18.03;100.00
70968;BME280;58629;48.808;8.820;2023-08-20T03:00:28;97520.28;;;18.00;100.00
70968;BME280;58629;48.808;8.820;2023-08-20T03:02:54;97509.28;;;17.98;100.00
70968;BME280;58629;48.808;8.820;2023-08-20T03:05:19;97506.00;;;17.94;100.00
70968;BME280;58629;48.808;8.820;2023-08-20T03:07:45;97508.38;;;17.92;100.00
70968;BME280;58629;48.808;8.820;2023-08-20T03:10:10;97503.00;;;17.92;100.00
70968;BME280;58629;48.808;8.820;2023-08-20T03:12:35;97500.50;;;17.88;100.00
70968;BME280;58629;48.808;8.820;2023-08-20T03:15:01;97501.81;;;17.84;100.00
70968;BME280;58629;48.808;8.820;2023-08-20T03:17:27;97508.94;;;17.78;100.00
70968;BME280;58629;48.808;8.820;2023-08-20T03:19:57;97505.81;;;17.70;100.00
70968;BME280;58629;48.808;8.820;2023-08-20T03:22:23;97508.19;;;17.68;100.00
70968;BME280;58629;48.808;8.820;2023-08-20T03:24:49;97505.50;;;17.68;100.00
70968;BME280;58629;48.808;8.820;2023-08-20T03:27:15;97507.44;;;17.68;100.00
70968;BME280;58629;48.808;8.820;2023-08-20T03:29:41;97507.75;;;17.70;100.00
70968;BME280;58629;48.808;8.820;2023-08-20T03:32:06;97505.06;;;17.70;100.00
70968;BME280;58629;48.808;8.820;2023-08-20T03:34:31;97501.63;;;17.69;100.00
70968;BME280;58629;48.808;8.820;2023-08-20T03:36:56;97510.41;;;17.70;100.00
70968;BME280;58629;48.808;8.820;2023-08-20T03:39:22;97511.91;;;17.71;100.00
70968;BME280;58629;48.808;8.820;2023-08-20T03:41:47;97515.31;;;17.71;100.00
70968;BME280;58629;48.808;8.820;2023-08-20T03:44:12;97507.59;;;17.73;100.00
70968;BME280;58629;48.808;8.820;2023-08-20T03:46:38;97503.13;;;17.70;100.00
70968;BME280;58629;48.808;8.820;2023-08-20T03:49:03;97505.66;;;17.65;100.00
70968;BME280;58629;48.808;8.820;2023-08-20T03:51:28;97497.75;;;17.61;100.00
70968;BME280;58629;48.808;8.820;2023-08-20T03:53:53;97510.09;;;17.59;100.00
70968;BME280;58629;48.808;8.820;2023-08-20T03:56:19;97498.19;;;17.60;100.00
70968;BME280;58629;48.808;8.820;2023-08-20T03:58:45;97502.06;;;17.59;100.00
70968;BME280;58629;48.808;8.820;2023-08-20T04:01:10;97518.25;;;17.55;100.00
70968;BME280;58629;48.808;8.820;2023-08-20T04:03:36;97518.22;;;17.46;100.00
70968;BME280;58629;48.808;8.820;2023-08-20T04:06:02;97516.78;;;17.23;100.00
70968;BME280;58629;48.808;8.820;2023-08-20T04:11:48;97524.19;;;17.19;100.00
70968;BME280;58629;48.808;8.820;2023-08-20T04:14:14;97517.97;;;17.22;100.00
70968;BME280;58629;48.808;8.820;2023-08-20T04:16:39;97532.13;;;17.23;100.00
70968;BME280;58629;48.808;8.820;2023-08-20T04:19:05;97532.72;;;17.27;100.00
70968;BME280;58629;48.808;8.820;2023-08-20T04:21:30;97536.56;;;17.26;100.00
70968;BME280;58629;48.808;8.820;2023-08-20T04:23:55;97537.94;;;17.30;100.00
70968;BME280;58629;48.808;8.820;2023-08-20T04:26:21;97539.00;;;17.33;100.00
70968;BME280;58629;48.808;8.820;2023-08-20T04:28:46;97538.25;;;17.32;100.00
70968;BME280;58629;48.808;8.820;2023-08-20T04:31:11;97544.22;;;17.37;100.00
70968;BME280;58629;48.808;8.820;2023-08-20T04:33:56;97537.97;;;17.40;100.00
70968;BME280;58629;48.808;8.820;2023-08-20T04:36:21;97548.53;;;17.43;100.00
70968;BME280;58629;48.808;8.820;2023-08-20T04:38:46;97551.81;;;17.47;100.00
70968;BME280;58629;48.808;8.820;2023-08-20T04:41:12;97551.44;;;17.49;100.00
70968;BME280;58629;48.808;8.820;2023-08-20T04:46:55;97528.47;;;17.48;100.00
70968;BME280;58629;48.808;8.820;2023-08-20T04:49:21;97526.69;;;17.45;100.00
70968;BME280;58629;48.808;8.820;2023-08-20T04:51:46;97534.84;;;17.41;100.00
70968;BME280;58629;48.808;8.820;2023-08-20T04:54:11;97533.94;;;17.35;100.00
70968;BME280;58629;48.808;8.820;2023-08-20T04:56:36;97533.50;;;17.37;100.00
70968;BME280;58629;48.808;8.820;2023-08-20T04:59:02;97539.31;;;17.35;100.00
70968;BME280;58629;48.808;8.820;2023-08-20T05:01:27;97540.03;;;17.35;100.00
70968;BME280;58629;48.808;8.820;2023-08-20T05:10:36;97538.78;;;17.49;100.00
70968;BME280;58629;48.808;8.820;2023-08-20T05:13:03;97541.63;;;17.55;100.00
70968;BME280;58629;48.808;8.820;2023-08-20T05:15:28;97541.19;;;17.56;100.00
70968;BME280;58629;48.808;8.820;2023-08-20T05:17:54;97550.59;;;17.61;100.00
70968;BME280;58629;48.808;8.820;2023-08-20T05:20:19;97552.38;;;17.64;100.00
70968;BME280;58629;48.808;8.820;2023-08-20T05:22:44;97548.50;;;17.65;100.00
70968;BME280;58629;48.808;8.820;2023-08-20T05:25:10;97550.28;;;17.68;100.00
70968;BME280;58629;48.808;8.820;2023-08-20T05:27:35;97554.19;;;17.76;100.00
70968;BME280;58629;48.808;8.820;2023-08-20T05:30:00;97552.72;;;17.84;100.00
70968;BME280;58629;48.808;8.820;2023-08-20T05:32:26;97546.91;;;17.85;100.00
70968;BME280;58629;48.808;8.820;2023-08-20T05:34:51;97541.69;;;17.91;100.00
70968;BME280;58629;48.808;8.820;2023-08-20T05:37:16;97550.66;;;17.97;100.00
70968;BME280;58629;48.808;8.820;2023-08-20T05:39:43;97556.47;;;18.04;100.00
70968;BME280;58629;48.808;8.820;2023-08-20T05:42:09;97558.41;;;18.13;100.00
70968;BME280;58629;48.808;8.820;2023-08-20T05:44:34;97559.16;;;18.23;100.00
70968;BME280;58629;48.808;8.820;2023-08-20T05:46:59;97556.97;;;18.30;100.00
70968;BME280;58629;48.808;8.820;2023-08-20T05:49:26;97550.84;;;18.39;100.00
70968;BME280;58629;48.808;8.820;2023-08-20T05:51:51;97558.72;;;18.42;100.00
70968;BME280;58629;48.808;8.820;2023-08-20T05:54:16;97561.00;;;18.44;100.00
70968;BME280;58629;48.808;8.820;2023-08-20T05:56:42;97556.53;;;18.50;100.00
70968;BME280;58629;48.808;8.820;2023-08-20T05:59:07;97560.13;;;18.56;100.00
70968;BME280;58629;48.808;8.820;2023-08-20T06:01:32;97562.19;;;18.61;100.00
70968;BME280;58629;48.808;8.820;2023-08-20T06:03:58;97563.81;;;18.67;100.00
70968;BME280;58629;48.808;8.820;2023-08-20T06:06:24;97573.63;;;18.70;100.00
70968;BME280;58629;48.808;8.820;2023-08-20T06:08:50;97577.38;;;18.73;100.00
70968;BME280;58629;48.808;8.820;2023-08-20T06:11:15;97573.94;;;18.81;100.00
70968;BME280;58629;48.808;8.820;2023-08-20T06:13:40;97577.66;;;18.93;100.00
70968;BME280;58629;48.808;8.820;2023-08-20T06:16:07;97572.69;;;19.10;100.00
70968;BME280;58629;48.808;8.820;2023-08-20T06:18:33;97583.81;;;19.26;100.00
70968;BME280;58629;48.808;8.820;2023-08-20T06:20:58;97578.59;;;19.41;100.00
70968;BME280;58629;48.808;8.820;2023-08-20T06:23:23;97584.22;;;19.52;100.00
70968;BME280;58629;48.808;8.820;2023-08-20T06:25:50;97585.22;;;19.63;100.00
70968;BME280;58629;48.808;8.820;2023-08-20T06:28:16;97584.72;;;19.74;100.00
70968;BME280;58629;48.808;8.820;2023-08-20T06:30:42;97583.75;;;19.86;100.00
70968;BME280;58629;48.808;8.820;2023-08-20T06:33:07;97587.31;;;19.92;100.00
70968;BME280;58629;48.808;8.820;2023-08-20T06:35:34;97582.41;;;19.91;100.00
70968;BME280;58629;48.808;8.820;2023-08-20T06:37:59;97587.31;;;19.92;100.00
70968;BME280;58629;48.808;8.820;2023-08-20T06:40:24;97584.91;;;19.94;100.00
70968;BME280;58629;48.808;8.820;2023-08-20T06:42:50;97584.44;;;19.96;100.00
70968;BME280;58629;48.808;8.820;2023-08-20T06:45:15;97581.59;;;19.99;100.00
70968;BME280;58629;48.808;8.820;2023-08-20T06:47:40;97590.34;;;20.09;100.00
70968;BME280;58629;48.808;8.820;2023-08-20T06:50:06;97583.41;;;20.26;100.00
70968;BME280;58629;48.808;8.820;2023-08-20T06:52:31;97593.97;;;20.29;100.00
70968;BME280;58629;48.808;8.820;2023-08-20T06:54:57;97593.38;;;20.49;100.00
70968;BME280;58629;48.808;8.820;2023-08-20T06:57:22;97596.50;;;20.71;100.00
70968;BME280;58629;48.808;8.820;2023-08-20T06:59:47;97593.34;;;20.87;100.00
70968;BME280;58629;48.808;8.820;2023-08-20T07:02:13;97595.16;;;21.05;100.00
70968;BME280;58629;48.808;8.820;2023-08-20T07:04:39;97594.97;;;21.23;100.00
70968;BME280;58629;48.808;8.820;2023-08-20T07:07:04;97595.06;;;21.43;100.00
70968;BME280;58629;48.808;8.820;2023-08-20T07:09:33;97585.00;;;21.58;100.00
70968;BME280;58629;48.808;8.820;2023-08-20T07:11:58;97597.22;;;21.74;100.00
70968;BME280;58629;48.808;8.820;2023-08-20T07:14:24;97601.84;;;21.88;100.00
70968;BME280;58629;48.808;8.820;2023-08-20T07:16:49;97592.50;;;22.03;100.00
70968;BME280;58629;48.808;8.820;2023-08-20T07:19:14;97590.97;;;22.17;100.00
70968;BME280;58629;48.808;8.820;2023-08-20T07:21:40;97604.19;;;22.35;100.00
70968;BME280;58629;48.808;8.820;2023-08-20T07:24:05;97606.34;;;22.51;100.00
70968;BME280;58629;48.808;8.820;2023-08-20T07:26:31;97603.38;;;22.69;100.00
70968;BME280;58629;48.808;8.820;2023-08-20T07:28:56;97605.50;;;22.85;100.00
70968;BME280;58629;48.808;8.820;2023-08-20T07:31:22;97597.28;;;23.00;100.00
70968;BME280;58629;48.808;8.820;2023-08-20T07:33:49;97604.34;;;23.17;100.00
70968;BME280;58629;48.808;8.820;2023-08-20T07:36:15;97603.56;;;23.37;100.00
70968;BME280;58629;48.808;8.820;2023-08-20T07:38:41;97603.66;;;23.54;100.00
70968;BME280;58629;48.808;8.820;2023-08-20T07:41:07;97613.16;;;23.75;100.00
70968;BME280;58629;48.808;8.820;2023-08-20T07:43:33;97613.50;;;23.88;97.51
70968;BME280;58629;48.808;8.820;2023-08-20T07:45:58;97617.53;;;24.03;96.30
70968;BME280;58629;48.808;8.820;2023-08-20T07:48:24;97615.19;;;24.22;97.98
70968;BME280;58629;48.808;8.820;2023-08-20T07:50:49;97615.22;;;24.33;94.50
70968;BME280;58629;48.808;8.820;2023-08-20T07:53:14;97620.47;;;24.48;94.86
70968;BME280;58629;48.808;8.820;2023-08-20T07:55:39;97613.84;;;24.60;93.07
70968;BME280;58629;48.808;8.820;2023-08-20T07:58:05;97615.84;;;24.70;92.57
70968;BME280;58629;48.808;8.820;2023-08-20T08:00:30;97613.47;;;24.83;90.82
70968;BME280;58629;48.808;8.820;2023-08-20T08:02:55;97620.84;;;24.94;91.18
70968;BME280;58629;48.808;8.820;2023-08-20T08:05:21;97617.94;;;25.09;91.12
70968;BME280;58629;48.808;8.820;2023-08-20T08:07:46;97615.72;;;25.18;88.75
70968;BME280;58629;48.808;8.820;2023-08-20T08:10:11;97614.00;;;25.26;87.38
70968;BME280;58629;48.808;8.820;2023-08-20T08:12:36;97606.13;;;25.39;87.29
70968;BME280;58629;48.808;8.820;2023-08-20T08:15:02;97611.06;;;25.52;87.10
70968;BME280;58629;48.808;8.820;2023-08-20T08:17:27;97616.00;;;25.64;86.07
70968;BME280;58629;48.808;8.820;2023-08-20T08:19:53;97609.59;;;25.73;84.94
70968;BME280;58629;48.808;8.820;2023-08-20T08:39:41;97622.44;;;26.46;77.03
70968;BME280;58629;48.808;8.820;2023-08-20T08:42:07;97622.41;;;26.57;77.54
70968;BME280;58629;48.808;8.820;2023-08-20T08:44:36;97631.53;;;26.66;76.58
70968;BME280;58629;48.808;8.820;2023-08-20T08:53:42;97629.28;;;26.75;71.65
70968;BME280;58629;48.808;8.820;2023-08-20T08:56:09;97628.88;;;27.01;73.75
70968;BME280;58629;48.808;8.820;2023-08-20T08:58:34;97629.84;;;27.03;70.62
70968;BME280;58629;48.808;8.820;2023-08-20T09:01:00;97627.47;;;27.29;72.23
70968;BME280;58629;48.808;8.820;2023-08-20T09:03:25;97630.00;;;27.52;71.50
70968;BME280;58629;48.808;8.820;2023-08-20T09:05:55;97626.00;;;27.58;69.67
70968;BME280;58629;48.808;8.820;2023-08-20T09:08:23;97631.66;;;27.60;70.80
70968;BME280;58629;48.808;8.820;2023-08-20T09:20:57;97632.25;;;27.77;69.36
70968;BME280;58629;48.808;8.820;2023-08-20T09:23:45;97621.56;;;27.85;68.88
70968;BME280;58629;48.808;8.820;2023-08-20T09:26:25;97626.63;;;27.99;68.61
70968;BME280;58629;48.808;8.820;2023-08-20T09:45:37;97634.78;;;28.66;63.81
70968;BME280;58629;48.808;8.820;2023-08-20T09:48:13;97625.28;;;28.73;63.43
70968;BME280;58629;48.808;8.820;2023-08-20T09:56:43;97635.66;;;29.11;62.23
70968;BME280;58629;48.808;8.820;2023-08-20T09:59:14;97624.47;;;29.15;61.80
70968;BME280;58629;48.808;8.820;2023-08-20T10:01:42;97629.84;;;29.21;60.23
70968;BME280;58629;48.808;8.820;2023-08-20T10:07:29;97632.09;;;29.35;60.46
70968;BME280;58629;48.808;8.820;2023-08-20T10:10:02;97629.59;;;29.37;59.48
70968;BME280;58629;48.808;8.820;2023-08-20T10:13:00;97628.63;;;29.35;57.16
70968;BME280;58629;48.808;8.820;2023-08-20T10:28:34;97631.19;;;29.90;57.34
70968;BME280;58629;48.808;8.820;2023-08-20T10:33:29;97634.91;;;29.61;55.73
70968;BME280;58629;48.808;8.820;2023-08-20T10:39:20;97632.84;;;29.93;53.75
70968;BME280;58629;48.808;8.820;2023-08-20T10:45:10;97619.00;;;30.44;55.92
70968;BME280;58629;48.808;8.820;2023-08-20T10:47:45;97616.56;;;30.53;54.46
70968;BME280;58629;48.808;8.820;2023-08-20T10:50:11;97625.19;;;30.57;54.39
70968;BME280;58629;48.808;8.820;2023-08-20T10:52:41;97622.13;;;30.61;53.11
70968;BME280;58629;48.808;8.820;2023-08-20T10:55:26;97621.03;;;30.77;53.67
70968;BME280;58629;48.808;8.820;2023-08-20T10:57:56;97620.50;;;30.78;52.33
70968;BME280;58629;48.808;8.820;2023-08-20T11:00:22;97626.09;;;30.86;52.92
70968;BME280;58629;48.808;8.820;2023-08-20T11:02:49;97618.91;;;30.83;51.79
70968;BME280;58629;48.808;8.820;2023-08-20T11:05:18;97614.41;;;30.86;51.38
70968;BME280;58629;48.808;8.820;2023-08-20T11:07:48;97611.94;;;30.61;51.85
70968;BME280;58629;48.808;8.820;2023-08-20T11:10:14;97614.22;;;31.04;53.00
70968;BME280;58629;48.808;8.820;2023-08-20T11:16:03;97614.94;;;31.38;51.97
70968;BME280;58629;48.808;8.820;2023-08-20T11:18:30;97618.50;;;31.46;49.83
70968;BME280;58629;48.808;8.820;2023-08-20T11:20:55;97614.34;;;31.53;50.98
70968;BME280;58629;48.808;8.820;2023-08-20T11:23:22;97611.81;;;31.55;52.03
70968;BME280;58629;48.808;8.820;2023-08-20T11:25:47;97616.53;;;31.34;50.94
70968;BME280;58629;48.808;8.820;2023-08-20T11:28:13;97609.56;;;31.12;53.78
70968;BME280;58629;48.808;8.820;2023-08-20T11:30:38;97610.13;;;31.31;52.33
70968;BME280;58629;48.808;8.820;2023-08-20T11:33:04;97620.63;;;31.40;51.66
70968;BME280;58629;48.808;8.820;2023-08-20T11:35:30;97618.38;;;31.18;49.89
70968;BME280;58629;48.808;8.820;2023-08-20T11:37:56;97619.00;;;31.24;51.05
70968;BME280;58629;48.808;8.820;2023-08-20T11:40:22;97607.00;;;31.48;50.01
70968;BME280;58629;48.808;8.820;2023-08-20T11:42:48;97607.41;;;31.80;50.71
70968;BME280;58629;48.808;8.820;2023-08-20T11:45:13;97600.81;;;31.96;49.92
70968;BME280;58629;48.808;8.820;2023-08-20T11:47:40;97599.50;;;31.69;49.87
70968;BME280;58629;48.808;8.820;2023-08-20T11:50:06;97599.94;;;31.81;50.57
70968;BME280;58629;48.808;8.820;2023-08-20T11:52:32;97597.31;;;31.96;50.41
70968;BME280;58629;48.808;8.820;2023-08-20T11:54:58;97601.19;;;32.00;48.83
70968;BME280;58629;48.808;8.820;2023-08-20T11:57:24;97598.19;;;32.19;49.75
70968;BME280;58629;48.808;8.820;2023-08-20T11:59:49;97602.53;;;31.37;48.25
70968;BME280;58629;48.808;8.820;2023-08-20T12:02:15;97592.41;;;30.91;49.54
70968;BME280;58629;48.808;8.820;2023-08-20T12:04:40;97603.13;;;31.23;50.00
70968;BME280;58629;48.808;8.820;2023-08-20T12:07:08;97599.56;;;31.56;48.71
70968;BME280;58629;48.808;8.820;2023-08-20T12:09:34;97597.47;;;31.70;48.29
70968;BME280;58629;48.808;8.820;2023-08-20T12:12:00;97594.31;;;31.86;48.18
70968;BME280;58629;48.808;8.820;2023-08-20T12:14:26;97584.06;;;31.79;48.95
70968;BME280;58629;48.808;8.820;2023-08-20T12:16:53;97588.84;;;32.14;50.99
70968;BME280;58629;48.808;8.820;2023-08-20T12:19:19;97594.41;;;32.29;49.75
70968;BME280;58629;48.808;8.820;2023-08-20T12:21:45;97580.25;;;32.46;48.82
70968;BME280;58629;48.808;8.820;2023-08-20T12:24:10;97578.66;;;32.66;48.51
70968;BME280;58629;48.808;8.820;2023-08-20T12:26:39;97589.44;;;32.64;49.58
70968;BME280;58629;48.808;8.820;2023-08-20T12:29:05;97592.38;;;32.22;49.15
70968;BME280;58629;48.808;8.820;2023-08-20T12:31:31;97578.16;;;31.96;49.98
70968;BME280;58629;48.808;8.820;2023-08-20T12:33:57;97571.22;;;32.30;49.51
70968;BME280;58629;48.808;8.820;2023-08-20T12:36:22;97573.47;;;32.47;49.42
70968;BME280;58629;48.808;8.820;2023-08-20T12:38:47;97575.53;;;32.62;48.89
70968;BME280;58629;48.808;8.820;2023-08-20T12:41:13;97568.63;;;32.68;48.59
70968;BME280;58629;48.808;8.820;2023-08-20T12:43:38;97568.97;;;32.65;47.97
70968;BME280;58629;48.808;8.820;2023-08-20T12:46:03;97566.06;;;32.78;47.72
70968;BME280;58629;48.808;8.820;2023-08-20T12:48:29;97558.78;;;32.80;46.94
70968;BME280;58629;48.808;8.820;2023-08-20T12:50:55;97556.38;;;32.77;46.10
70968;BME280;58629;48.808;8.820;2023-08-20T12:53:20;97560.13;;;33.02;47.10
70968;BME280;58629;48.808;8.820;2023-08-20T12:55:46;97555.53;;;33.04;46.61
70968;BME280;58629;48.808;8.820;2023-08-20T12:58:11;97556.44;;;33.14;46.81
70968;BME280;58629;48.808;8.820;2023-08-20T13:00:37;97552.81;;;33.19;46.41
70968;BME280;58629;48.808;8.820;2023-08-20T13:03:02;97556.66;;;33.32;46.73
70968;BME280;58629;48.808;8.820;2023-08-20T13:05:28;97550.78;;;33.20;44.82
70968;BME280;58629;48.808;8.820;2023-08-20T13:07:54;97553.63;;;32.84;44.88
70968;BME280;58629;48.808;8.820;2023-08-20T13:10:20;97552.19;;;32.83;47.27
70968;BME280;58629;48.808;8.820;2023-08-20T13:12:53;97552.81;;;33.12;45.71
70968;BME280;58629;48.808;8.820;2023-08-20T13:15:22;97548.94;;;33.15;45.20
70968;BME280;58629;48.808;8.820;2023-08-20T13:17:48;97545.84;;;33.18;46.19
70968;BME280;58629;48.808;8.820;2023-08-20T13:20:15;97542.66;;;32.77;46.81
70968;BME280;58629;48.808;8.820;2023-08-20T13:22:46;97538.63;;;32.70;45.18
70968;BME280;58629;48.808;8.820;2023-08-20T13:25:11;97540.09;;;32.79;46.50
70968;BME280;58629;48.808;8.820;2023-08-20T13:27:36;97538.34;;;33.04;46.98
70968;BME280;58629;48.808;8.820;2023-08-20T13:30:02;97550.41;;;33.08;47.60
70968;BME280;58629;48.808;8.820;2023-08-20T13:32:28;97547.13;;;33.10;46.27
70968;BME280;58629;48.808;8.820;2023-08-20T13:34:53;97548.59;;;33.18;47.75
70968;BME280;58629;48.808;8.820;2023-08-20T13:37:18;97546.41;;;33.40;44.77
70968;BME280;58629;48.808;8.820;2023-08-20T13:39:44;97534.84;;;33.56;46.05
70968;BME280;58629;48.808;8.820;2023-08-20T13:42:09;97533.00;;;33.66;46.86
70968;BME280;58629;48.808;8.820;2023-08-20T13:44:35;97530.59;;;33.78;45.32
70968;BME280;58629;48.808;8.820;2023-08-20T13:47:00;97535.38;;;33.85;45.15
70968;BME280;58629;48.808;8.820;2023-08-20T13:49:25;97533.03;;;33.59;46.77
70968;BME280;58629;48.808;8.820;2023-08-20T13:51:51;97531.72;;;33.75;46.19
70968;BME280;58629;48.808;8.820;2023-08-20T13:54:16;97530.47;;;33.53;45.02
70968;BME280;58629;48.808;8.820;2023-08-20T13:56:42;97529.00;;;33.60;46.04
70968;BME280;58629;48.808;8.820;2023-08-20T13:59:09;97520.69;;;33.90;45.63
70968;BME280;58629;48.808;8.820;2023-08-20T14:01:35;97516.66;;;33.98;45.87
70968;BME280;58629;48.808;8.820;2023-08-20T14:04:00;97517.00;;;33.95;45.71
70968;BME280;58629;48.808;8.820;2023-08-20T14:06:25;97512.63;;;33.92;44.24
70968;BME280;58629;48.808;8.820;2023-08-20T14:08:50;97516.13;;;33.85;46.42
70968;BME280;58629;48.808;8.820;2023-08-20T14:11:16;97514.44;;;33.89;46.98
70968;BME280;58629;48.808;8.820;2023-08-20T14:13:41;97520.69;;;33.90;44.34
70968;BME280;58629;48.808;8.820;2023-08-20T14:16:07;97529.09;;;33.99;46.03
70968;BME280;58629;48.808;8.820;2023-08-20T14:18:33;97523.69;;;33.47;45.70
70968;BME280;58629;48.808;8.820;2023-08-20T14:24:29;97517.38;;;32.48;48.15
70968;BME280;58629;48.808;8.820;2023-08-20T14:26:54;97520.94;;;32.28;48.80
70968;BME280;58629;48.808;8.820;2023-08-20T14:33:03;97533.25;;;31.71;49.07
70968;BME280;58629;48.808;8.820;2023-08-20T14:35:29;97527.03;;;31.70;50.95
70968;BME280;58629;48.808;8.820;2023-08-20T14:37:55;97521.31;;;31.60;49.71
70968;BME280;58629;48.808;8.820;2023-08-20T14:40:20;97525.81;;;31.79;47.99
70968;BME280;58629;48.808;8.820;2023-08-20T14:46:07;97518.44;;;31.66;48.59
70968;BME280;58629;48.808;8.820;2023-08-20T14:48:32;97512.47;;;31.26;48.18
70968;BME280;58629;48.808;8.820;2023-08-20T14:51:00;97516.69;;;31.07;49.64